createdAt,value
2019-04-28T00:00:06.081Z,8.57
2019-04-28T00:01:05.997Z,8.42
2019-04-28T00:02:05.943Z,8.47
2019-04-28T00:03:05.891Z,8.44
2019-04-28T00:04:05.835Z,8.44
2019-04-28T00:05:05.827Z,8.60
2019-04-28T00:06:05.724Z,8.49
2019-04-28T00:07:05.672Z,8.55
2019-04-28T00:08:05.621Z,8.51
2019-04-28T00:09:05.574Z,8.48
2019-04-28T00:10:05.515Z,8.45
2019-04-28T00:11:05.499Z,8.47
2019-04-28T00:12:05.404Z,8.48
2019-04-28T00:13:05.357Z,8.45
2019-04-28T00:14:08.249Z,8.42
2019-04-28T00:15:05.250Z,8.51
2019-04-28T00:16:05.221Z,8.39
2019-04-28T00:17:05.136Z,8.48
2019-04-28T00:18:05.083Z,8.49
2019-04-28T00:19:05.032Z,8.44
2019-04-28T00:20:04.983Z,8.45
2019-04-28T00:21:04.953Z,8.45
2019-04-28T00:22:04.874Z,8.42
2019-04-28T00:23:06.981Z,8.42
2019-04-28T00:24:04.763Z,8.42
2019-04-28T00:25:04.712Z,8.42
2019-04-28T00:26:04.686Z,8.45
2019-04-28T00:27:04.606Z,8.44
2019-04-28T00:28:04.556Z,8.51
2019-04-28T00:29:04.500Z,8.49
2019-04-28T00:30:04.450Z,8.44
2019-04-28T00:31:04.417Z,8.57
2019-04-28T00:32:04.342Z,8.64
2019-04-28T00:33:04.289Z,8.59
2019-04-28T00:34:04.235Z,8.63
2019-04-28T00:35:04.180Z,8.67
2019-04-28T00:36:04.148Z,8.62
2019-04-28T00:37:04.071Z,8.69
2019-04-28T00:38:04.020Z,8.70
2019-04-28T00:39:03.960Z,8.63
2019-04-28T00:40:03.915Z,8.63
2019-04-28T00:41:03.883Z,8.64
2019-04-28T00:42:03.809Z,8.62
2019-04-28T00:43:03.755Z,8.62
2019-04-28T00:44:03.721Z,8.67
2019-04-28T00:45:03.643Z,8.67
2019-04-28T00:46:03.619Z,8.66
2019-04-28T00:47:03.539Z,8.70
2019-04-28T00:48:03.487Z,8.66
2019-04-28T00:49:03.439Z,8.64
2019-04-28T00:50:03.387Z,8.62
2019-04-28T00:51:03.345Z,8.59
2019-04-28T00:52:03.269Z,8.59
2019-04-28T00:53:03.218Z,8.62
2019-04-28T00:54:03.171Z,8.52
2019-04-28T00:55:03.113Z,8.51
2019-04-28T00:56:03.084Z,8.49
2019-04-28T00:57:03.004Z,8.48
2019-04-28T00:58:02.952Z,8.59
2019-04-28T00:59:02.903Z,8.47
2019-04-28T01:00:02.845Z,8.44
2019-04-28T01:01:02.819Z,8.54
2019-04-28T01:02:02.740Z,8.52
2019-04-28T01:03:02.682Z,8.52
2019-04-28T01:04:02.629Z,8.52
2019-04-28T01:05:02.578Z,8.55
2019-04-28T01:06:02.552Z,8.42
2019-04-28T01:07:02.471Z,8.42
2019-04-28T01:08:02.417Z,8.42
2019-04-28T01:09:03.832Z,8.52
2019-04-28T01:10:02.317Z,8.51
2019-04-28T01:11:02.278Z,8.51
2019-04-28T01:12:02.199Z,8.47
2019-04-28T01:13:02.254Z,8.54
2019-04-28T01:14:02.094Z,8.57
2019-04-28T01:15:04.687Z,8.60
2019-04-28T01:16:02.012Z,8.63
2019-04-28T01:17:01.933Z,8.54
2019-04-28T01:18:01.887Z,8.60
2019-04-28T01:19:01.826Z,8.66
2019-04-28T01:20:01.771Z,8.66
2019-04-28T01:21:01.748Z,8.62
2019-04-28T01:22:01.663Z,8.59
2019-04-28T01:23:01.616Z,8.57
2019-04-28T01:24:01.561Z,8.62
2019-04-28T01:25:01.506Z,8.62
2019-04-28T01:26:01.494Z,8.67
2019-04-28T01:27:01.404Z,8.60
2019-04-28T01:28:01.351Z,8.67
2019-04-28T01:29:01.293Z,8.67
2019-04-28T01:30:08.358Z,8.63
2019-04-28T01:31:01.186Z,8.62
2019-04-28T01:32:01.159Z,8.66
2019-04-28T01:33:01.077Z,8.67
2019-04-28T01:34:01.647Z,8.59
2019-04-28T01:35:00.972Z,8.59
2019-04-28T01:36:00.918Z,8.63
2019-04-28T01:37:00.884Z,8.57
2019-04-28T01:38:00.815Z,8.57
2019-04-28T01:39:00.762Z,8.57
2019-04-28T01:40:00.709Z,8.59
2019-04-28T01:41:01.551Z,8.62
2019-04-28T01:42:00.623Z,8.57
2019-04-28T01:43:00.551Z,8.57
2019-04-28T01:44:00.494Z,8.59
2019-04-28T01:45:00.688Z,8.59
2019-04-28T01:46:00.389Z,8.52
2019-04-28T01:47:01.219Z,8.57
2019-04-28T01:48:02.189Z,8.52
2019-04-28T01:49:00.225Z,8.52
2019-04-28T01:50:01.956Z,8.54
2019-04-28T01:51:00.118Z,8.55
2019-04-28T01:52:00.923Z,8.55
2019-04-28T01:53:00.011Z,8.59
2019-04-28T01:54:00.227Z,8.59
2019-04-28T01:55:00.425Z,8.63
2019-04-28T01:55:59.849Z,8.62
2019-04-28T01:57:01.345Z,8.59
2019-04-28T01:57:59.748Z,8.67
2019-04-28T01:59:00.331Z,8.64
2019-04-28T01:59:59.985Z,8.54
2019-04-28T02:00:59.716Z,8.55
2019-04-28T02:02:00.048Z,8.51
2019-04-28T02:03:00.424Z,8.54
2019-04-28T02:04:00.221Z,8.57
2019-04-28T02:04:59.861Z,8.62
2019-04-28T02:06:00.191Z,8.62
2019-04-28T02:06:59.803Z,8.62
2019-04-28T02:08:00.330Z,8.59
2019-04-28T02:09:00.834Z,8.59
2019-04-28T02:10:00.767Z,8.62
2019-04-28T02:11:00.136Z,8.64
2019-04-28T02:12:00.802Z,8.60
2019-04-28T02:12:59.932Z,8.59
2019-04-28T02:13:59.752Z,8.57
2019-04-28T02:15:00.962Z,8.57
2019-04-28T02:16:00.048Z,8.54
2019-04-28T02:17:00.348Z,8.64
2019-04-28T02:18:00.139Z,8.64
2019-04-28T02:18:59.758Z,8.60
2019-04-28T02:20:00.431Z,8.66
2019-04-28T02:20:59.583Z,8.67
2019-04-28T02:21:59.527Z,8.66
2019-04-28T02:22:59.896Z,8.64
2019-04-28T02:23:59.934Z,8.62
2019-04-28T02:25:00.211Z,8.63
2019-04-28T02:25:59.732Z,8.64
2019-04-28T02:27:00.610Z,8.66
2019-04-28T02:27:59.587Z,8.63
2019-04-28T02:28:58.084Z,8.62
2019-04-28T02:29:59.921Z,8.69
2019-04-28T02:30:57.982Z,8.72
2019-04-28T02:31:57.955Z,8.60
2019-04-28T02:32:57.874Z,8.66
2019-04-28T02:34:00.665Z,8.62
2019-04-28T02:35:00.817Z,8.66
2019-04-28T02:35:57.721Z,8.62
2019-04-28T02:37:00.997Z,8.73
2019-04-28T02:37:59.935Z,8.60
2019-04-28T02:38:57.556Z,8.66
2019-04-28T02:39:57.500Z,8.66
2019-04-28T02:41:00.029Z,8.72
2019-04-28T02:41:57.424Z,8.60
2019-04-28T02:42:57.338Z,8.64
2019-04-28T02:43:57.289Z,8.67
2019-04-28T02:44:57.242Z,8.72
2019-04-28T02:45:57.181Z,8.66
2019-04-28T02:46:57.169Z,8.70
2019-04-28T02:47:57.079Z,8.77
2019-04-28T02:48:57.022Z,8.67
2019-04-28T02:49:56.967Z,8.69
2019-04-28T02:50:56.910Z,8.70
2019-04-28T02:51:56.854Z,8.72
2019-04-28T02:52:56.839Z,8.69
2019-04-28T02:53:56.759Z,8.64
2019-04-28T02:54:56.710Z,8.60
2019-04-28T02:55:56.656Z,8.60
2019-04-28T02:56:56.591Z,8.67
2019-04-28T02:57:56.559Z,8.67
2019-04-28T02:58:56.491Z,8.62
2019-04-28T02:59:56.434Z,8.72
2019-04-28T03:01:06.306Z,8.62
2019-04-28T03:01:56.319Z,8.69
2019-04-28T03:02:56.298Z,8.66
2019-04-28T03:03:56.220Z,8.62
2019-04-28T03:04:56.165Z,8.67
2019-04-28T03:05:56.108Z,8.67
2019-04-28T03:06:56.058Z,8.67
2019-04-28T03:07:56.030Z,8.67
2019-04-28T03:08:55.947Z,8.62
2019-04-28T03:09:55.898Z,8.66
2019-04-28T03:10:55.844Z,8.69
2019-04-28T03:11:55.790Z,8.64
2019-04-28T03:12:55.761Z,8.67
2019-04-28T03:13:55.682Z,8.67
2019-04-28T03:14:55.629Z,8.67
2019-04-28T03:15:55.585Z,8.70
2019-04-28T03:16:55.528Z,8.70
2019-04-28T03:17:55.493Z,8.62
2019-04-28T03:18:55.424Z,8.55
2019-04-28T03:19:55.362Z,8.69
2019-04-28T03:20:55.310Z,8.70
2019-04-28T03:21:55.254Z,8.69
2019-04-28T03:22:55.227Z,8.67
2019-04-28T03:23:55.146Z,8.67
2019-04-28T03:24:55.097Z,8.62
2019-04-28T03:25:55.057Z,8.60
2019-04-28T03:26:54.985Z,8.57
2019-04-28T03:27:54.962Z,8.63
2019-04-28T03:28:54.883Z,8.57
2019-04-28T03:29:54.851Z,8.55
2019-04-28T03:30:54.931Z,8.63
2019-04-28T03:32:16.091Z,8.57
2019-04-28T03:33:00.229Z,8.59
2019-04-28T03:33:55.898Z,8.57
2019-04-28T03:34:54.770Z,8.59
2019-04-28T03:35:54.538Z,8.51
2019-04-28T03:36:54.457Z,8.49
2019-04-28T03:37:54.445Z,8.57
2019-04-28T03:38:54.351Z,8.47
2019-04-28T03:39:54.293Z,8.47
2019-04-28T03:40:54.249Z,8.48
2019-04-28T03:41:54.188Z,8.42
2019-04-28T03:42:54.160Z,8.49
2019-04-28T03:43:54.085Z,8.57
2019-04-28T03:44:54.037Z,8.55
2019-04-28T03:45:53.976Z,8.45
2019-04-28T03:46:53.932Z,8.54
2019-04-28T03:47:53.904Z,8.51
2019-04-28T03:48:53.816Z,8.48
2019-04-28T03:49:53.761Z,8.48
2019-04-28T03:50:53.709Z,8.57
2019-04-28T03:51:53.654Z,8.52
2019-04-28T03:52:53.624Z,8.48
2019-04-28T03:53:53.546Z,8.51
2019-04-28T03:54:53.495Z,8.51
2019-04-28T03:55:53.441Z,8.47
2019-04-28T03:56:53.654Z,8.52
2019-04-28T03:57:53.355Z,8.49
2019-04-28T03:58:53.282Z,8.49
2019-04-28T03:59:53.227Z,8.49
2019-04-28T04:00:53.180Z,8.55
2019-04-28T04:01:59.437Z,8.55
2019-04-28T04:02:53.087Z,8.51
2019-04-28T04:03:53.021Z,8.57
2019-04-28T04:04:53.129Z,8.62
2019-04-28T04:05:52.907Z,8.42
2019-04-28T04:06:52.860Z,8.59
2019-04-28T04:07:52.823Z,8.51
2019-04-28T04:08:52.757Z,8.51
2019-04-28T04:09:52.696Z,8.59
2019-04-28T04:10:52.633Z,8.54
2019-04-28T04:11:52.585Z,8.48
2019-04-28T04:12:52.558Z,8.47
2019-04-28T04:13:52.505Z,8.51
2019-04-28T04:14:52.423Z,8.54
2019-04-28T04:15:54.123Z,8.45
2019-04-28T04:16:52.328Z,8.49
2019-04-28T04:17:52.266Z,8.48
2019-04-28T04:18:53.754Z,8.49
2019-04-28T04:19:52.165Z,8.55
2019-04-28T04:20:52.102Z,8.52
2019-04-28T04:21:52.716Z,8.41
2019-04-28T04:22:51.996Z,8.57
2019-04-28T04:23:51.969Z,8.48
2019-04-28T04:24:52.453Z,8.48
2019-04-28T04:25:51.843Z,8.44
2019-04-28T04:26:51.786Z,8.47
2019-04-28T04:27:51.731Z,8.49
2019-04-28T04:28:51.897Z,8.57
2019-04-28T04:29:51.625Z,8.48
2019-04-28T04:30:51.570Z,8.55
2019-04-28T04:31:51.515Z,8.52
2019-04-28T04:32:51.464Z,8.64
2019-04-28T04:33:51.436Z,8.59
2019-04-28T04:34:51.352Z,8.49
2019-04-28T04:35:51.890Z,8.55
2019-04-28T04:36:51.249Z,8.52
2019-04-28T04:37:51.201Z,8.59
2019-04-28T04:38:51.741Z,8.57
2019-04-28T04:39:51.477Z,8.59
2019-04-28T04:40:51.440Z,8.57
2019-04-28T04:41:50.980Z,8.62
2019-04-28T04:42:50.927Z,8.57
2019-04-28T04:43:51.499Z,8.57
2019-04-28T04:44:50.822Z,8.62
2019-04-28T04:45:50.787Z,8.66
2019-04-28T04:46:50.950Z,8.62
2019-04-28T04:47:50.664Z,8.67
2019-04-28T04:48:50.905Z,8.66
2019-04-28T04:49:50.607Z,8.67
2019-04-28T04:50:51.125Z,8.66
2019-04-28T04:51:51.012Z,8.64
2019-04-28T04:52:50.394Z,8.62
2019-04-28T04:53:51.278Z,8.62
2019-04-28T04:54:51.153Z,8.60
2019-04-28T04:55:52.620Z,8.63
2019-04-28T04:56:50.251Z,8.72
2019-04-28T04:57:50.713Z,8.59
2019-04-28T04:58:50.568Z,8.62
2019-04-28T04:59:50.138Z,8.72
2019-04-28T05:00:51.092Z,8.82
2019-04-28T05:01:50.319Z,8.80
2019-04-28T05:02:52.985Z,8.85
2019-04-28T05:03:49.842Z,8.85
2019-04-28T05:04:50.627Z,8.80
2019-04-28T05:05:50.207Z,8.81
2019-04-28T05:06:49.750Z,8.75
2019-04-28T05:07:50.760Z,8.80
2019-04-28T05:08:49.906Z,8.88
2019-04-28T05:09:49.606Z,8.87
2019-04-28T05:10:50.299Z,8.82
2019-04-28T05:11:49.980Z,8.88
2019-04-28T05:12:49.962Z,8.95
2019-04-28T05:13:49.785Z,8.93
2019-04-28T05:14:49.488Z,8.90
2019-04-28T05:15:50.744Z,8.96
2019-04-28T05:16:49.758Z,9.02
2019-04-28T05:17:50.099Z,8.99
2019-04-28T05:18:49.920Z,9.06
2019-04-28T05:19:49.688Z,9.06
2019-04-28T05:20:50.432Z,8.93
2019-04-28T05:21:49.877Z,9.02
2019-04-28T05:22:50.545Z,9.05
2019-04-28T05:23:49.331Z,9.08
2019-04-28T05:24:51.162Z,9.14
2019-04-28T05:25:49.730Z,9.10
2019-04-28T05:26:49.627Z,9.06
2019-04-28T05:27:50.028Z,8.98
2019-04-28T05:28:51.499Z,9.08
2019-04-28T05:29:51.193Z,9.03
2019-04-28T05:30:50.133Z,9.15
2019-04-28T05:31:50.202Z,9.22
2019-04-28T05:32:55.587Z,9.22
2019-04-28T05:33:49.823Z,9.22
2019-04-28T05:34:50.335Z,9.18
2019-04-28T05:35:49.982Z,9.19
2019-04-28T05:36:49.979Z,9.18
2019-04-28T05:37:49.411Z,9.22
2019-04-28T05:38:49.593Z,9.25
2019-04-28T05:39:49.658Z,9.33
2019-04-28T05:40:49.397Z,9.33
2019-04-28T05:41:47.788Z,9.37
2019-04-28T05:42:47.729Z,9.36
2019-04-28T05:43:47.676Z,9.34
2019-04-28T05:44:49.527Z,9.42
2019-04-28T05:45:47.575Z,9.34
2019-04-28T05:46:47.515Z,9.37
2019-04-28T05:47:47.467Z,9.26
2019-04-28T05:48:47.412Z,9.40
2019-04-28T05:49:47.385Z,9.36
2019-04-28T05:50:47.309Z,9.49
2019-04-28T05:51:47.259Z,9.44
2019-04-28T05:52:47.206Z,9.46
2019-04-28T05:53:47.150Z,9.49
2019-04-28T05:54:47.125Z,9.47
2019-04-28T05:55:47.040Z,9.42
2019-04-28T05:56:46.993Z,9.42
2019-04-28T05:57:46.938Z,9.44
2019-04-28T05:58:46.884Z,9.42
2019-04-28T05:59:46.854Z,9.47
2019-04-28T06:00:46.780Z,9.58
2019-04-28T06:01:46.725Z,9.51
2019-04-28T06:02:55.905Z,9.52
2019-04-28T06:03:46.621Z,9.58
2019-04-28T06:04:46.590Z,9.47
2019-04-28T06:05:46.518Z,9.54
2019-04-28T06:06:46.459Z,9.52
2019-04-28T06:07:46.411Z,9.59
2019-04-28T06:08:46.358Z,9.61
2019-04-28T06:09:46.337Z,9.62
2019-04-28T06:10:46.252Z,9.62
2019-04-28T06:11:46.198Z,9.54
2019-04-28T06:12:46.147Z,9.59
2019-04-28T06:13:46.080Z,9.57
2019-04-28T06:14:46.062Z,9.52
2019-04-28T06:15:45.989Z,9.43
2019-04-28T06:16:45.934Z,9.43
2019-04-28T06:17:45.882Z,9.43
2019-04-28T06:18:45.831Z,9.43
2019-04-28T06:19:45.801Z,9.34
2019-04-28T06:20:45.724Z,9.32
2019-04-28T06:21:45.677Z,9.26
2019-04-28T06:22:45.617Z,9.33
2019-04-28T06:23:45.570Z,9.33
2019-04-28T06:24:45.536Z,9.29
2019-04-28T06:25:45.464Z,9.42
2019-04-28T06:26:45.407Z,9.32
2019-04-28T06:27:45.357Z,9.43
2019-04-28T06:28:45.306Z,9.52
2019-04-28T06:29:45.270Z,9.47
2019-04-28T06:30:45.200Z,9.49
2019-04-28T06:31:45.150Z,9.51
2019-04-28T06:32:45.094Z,9.65
2019-04-28T06:33:45.048Z,9.67
2019-04-28T06:34:45.013Z,9.65
2019-04-28T06:35:44.931Z,9.62
2019-04-28T06:36:44.883Z,9.67
2019-04-28T06:37:44.830Z,9.67
2019-04-28T06:38:44.794Z,9.83
2019-04-28T06:39:47.236Z,9.85
2019-04-28T06:40:44.672Z,9.90
2019-04-28T06:41:44.617Z,9.90
2019-04-28T06:42:44.562Z,9.88
2019-04-28T06:43:44.517Z,9.95
2019-04-28T06:44:44.487Z,9.91
2019-04-28T06:45:44.412Z,9.93
2019-04-28T06:46:44.353Z,9.88
2019-04-28T06:47:44.302Z,9.90
2019-04-28T06:48:44.254Z,9.93
2019-04-28T06:49:44.229Z,9.93
2019-04-28T06:50:44.157Z,9.93
2019-04-28T06:51:44.095Z,9.90
2019-04-28T06:52:44.049Z,9.90
2019-04-28T06:53:43.990Z,9.94
2019-04-28T06:54:43.962Z,9.95
2019-04-28T06:55:43.907Z,10.06
2019-04-28T06:56:43.835Z,10.10
2019-04-28T06:57:43.784Z,10.12
2019-04-28T06:58:43.733Z,10.27
2019-04-28T06:59:43.673Z,10.27
2019-04-28T07:00:43.650Z,10.13
2019-04-28T07:01:43.575Z,10.22
2019-04-28T07:02:43.518Z,10.12
2019-04-28T07:03:43.467Z,10.20
2019-04-28T07:04:43.411Z,10.19
2019-04-28T07:05:43.388Z,10.23
2019-04-28T07:06:43.313Z,10.27
2019-04-28T07:07:43.264Z,10.18
2019-04-28T07:08:43.211Z,10.33
2019-04-28T07:09:43.155Z,10.35
2019-04-28T07:10:43.131Z,10.43
2019-04-28T07:11:43.053Z,10.41
2019-04-28T07:12:43.001Z,10.62
2019-04-28T07:13:42.949Z,10.60
2019-04-28T07:14:42.895Z,10.48
2019-04-28T07:15:42.866Z,10.54
2019-04-28T07:16:42.799Z,10.56
2019-04-28T07:17:42.741Z,10.60
2019-04-28T07:18:42.695Z,10.54
2019-04-28T07:19:42.638Z,10.64
2019-04-28T07:20:42.614Z,10.68
2019-04-28T07:21:42.535Z,10.64
2019-04-28T07:22:42.485Z,10.77
2019-04-28T07:23:42.429Z,10.71
2019-04-28T07:24:44.797Z,10.75
2019-04-28T07:25:42.348Z,10.75
2019-04-28T07:26:42.322Z,10.78
2019-04-28T07:27:42.224Z,10.87
2019-04-28T07:28:42.171Z,10.90
2019-04-28T07:29:42.120Z,10.78
2019-04-28T07:30:42.098Z,10.86
2019-04-28T07:31:42.017Z,10.89
2019-04-28T07:32:41.978Z,10.90
2019-04-28T07:33:41.911Z,10.87
2019-04-28T07:34:41.864Z,10.87
2019-04-28T07:35:41.833Z,10.92
2019-04-28T07:36:41.760Z,10.87
2019-04-28T07:37:41.714Z,10.87
2019-04-28T07:38:41.650Z,10.83
2019-04-28T07:39:41.607Z,10.83
2019-04-28T07:40:41.575Z,10.90
2019-04-28T07:41:41.503Z,10.93
2019-04-28T07:42:41.447Z,10.95
2019-04-28T07:43:41.398Z,10.96
2019-04-28T07:44:41.349Z,10.93
2019-04-28T07:45:41.319Z,10.89
2019-04-28T07:46:41.245Z,10.87
2019-04-28T07:47:41.188Z,10.86
2019-04-28T07:48:41.145Z,11.01
2019-04-28T07:49:41.087Z,11.01
2019-04-28T07:50:41.060Z,11.04
2019-04-28T07:51:40.989Z,11.08
2019-04-28T07:52:40.931Z,11.08
2019-04-28T07:53:40.882Z,11.17
2019-04-28T07:54:40.826Z,11.14
2019-04-28T07:55:40.803Z,11.08
2019-04-28T07:56:40.736Z,11.05
2019-04-28T07:57:40.682Z,11.05
2019-04-28T07:58:40.629Z,10.97
2019-04-28T07:59:40.575Z,11.12
2019-04-28T08:00:40.560Z,11.11
2019-04-28T08:01:40.474Z,11.30
2019-04-28T08:02:40.420Z,11.20
2019-04-28T08:03:49.352Z,11.15
2019-04-28T08:04:40.321Z,11.15
2019-04-28T08:05:40.287Z,11.25
2019-04-28T08:06:40.213Z,11.23
2019-04-28T08:07:40.165Z,11.23
2019-04-28T08:08:40.115Z,11.26
2019-04-28T08:09:40.064Z,11.25
2019-04-28T08:10:40.621Z,11.28
2019-04-28T08:11:39.961Z,11.26
2019-04-28T08:12:39.909Z,11.22
2019-04-28T08:13:39.858Z,11.35
2019-04-28T08:14:39.811Z,11.46
2019-04-28T08:15:39.797Z,11.61
2019-04-28T08:16:39.700Z,11.61
2019-04-28T08:17:39.656Z,11.56
2019-04-28T08:18:39.602Z,11.74
2019-04-28T08:19:39.546Z,11.77
2019-04-28T08:20:39.499Z,11.87
2019-04-28T08:21:39.483Z,11.81
2019-04-28T08:22:39.400Z,11.91
2019-04-28T08:23:47.045Z,12.05
2019-04-28T08:24:39.298Z,12.13
2019-04-28T08:25:39.246Z,12.15
2019-04-28T08:26:39.218Z,12.28
2019-04-28T08:27:39.149Z,12.18
2019-04-28T08:28:39.091Z,12.24
2019-04-28T08:29:39.043Z,12.24
2019-04-28T08:30:38.992Z,12.27
2019-04-28T08:31:38.965Z,12.21
2019-04-28T08:32:38.893Z,12.27
2019-04-28T08:33:38.893Z,12.30
2019-04-28T08:34:38.790Z,12.39
2019-04-28T08:35:38.739Z,12.42
2019-04-28T08:36:38.732Z,12.32
2019-04-28T08:37:38.661Z,12.43
2019-04-28T08:38:38.593Z,12.42
2019-04-28T08:39:38.538Z,12.38
2019-04-28T08:40:38.491Z,12.39
2019-04-28T08:41:38.465Z,12.38
2019-04-28T08:42:38.392Z,12.43
2019-04-28T08:43:38.336Z,12.36
2019-04-28T08:44:38.286Z,12.22
2019-04-28T08:45:38.242Z,12.22
2019-04-28T08:46:38.350Z,12.20
2019-04-28T08:47:38.164Z,12.22
2019-04-28T08:48:38.083Z,12.06
2019-04-28T08:49:38.032Z,11.95
2019-04-28T08:50:37.985Z,11.86
2019-04-28T08:51:37.951Z,11.87
2019-04-28T08:52:37.887Z,11.81
2019-04-28T08:53:37.835Z,11.68
2019-04-28T08:54:37.785Z,11.71
2019-04-28T08:55:37.732Z,11.72
2019-04-28T08:56:37.708Z,11.79
2019-04-28T08:57:37.637Z,11.74
2019-04-28T08:58:37.578Z,11.69
2019-04-28T08:59:37.532Z,11.74
2019-04-28T09:00:37.479Z,11.77
2019-04-28T09:01:37.459Z,11.84
2019-04-28T09:02:37.380Z,11.79
2019-04-28T09:03:37.330Z,11.71
2019-04-28T09:04:37.278Z,11.56
2019-04-28T09:05:37.230Z,11.63
2019-04-28T09:06:37.204Z,11.47
2019-04-28T09:07:37.129Z,11.59
2019-04-28T09:08:37.076Z,11.63
2019-04-28T09:09:37.028Z,11.59
2019-04-28T09:10:36.974Z,11.65
2019-04-28T09:11:36.955Z,11.71
2019-04-28T09:12:36.875Z,11.68
2019-04-28T09:13:36.832Z,11.66
2019-04-28T09:14:36.772Z,11.53
2019-04-28T09:15:36.720Z,11.61
2019-04-28T09:16:36.699Z,11.61
2019-04-28T09:17:36.624Z,11.65
2019-04-28T09:18:36.573Z,11.77
2019-04-28T09:19:36.525Z,11.61
2019-04-28T09:20:36.468Z,11.59
2019-04-28T09:21:36.444Z,11.53
2019-04-28T09:22:36.365Z,11.43
2019-04-28T09:23:36.321Z,11.30
2019-04-28T09:24:36.270Z,11.32
2019-04-28T09:25:36.219Z,11.38
2019-04-28T09:26:37.127Z,11.44
2019-04-28T09:27:36.108Z,11.48
2019-04-28T09:28:36.070Z,11.50
2019-04-28T09:29:36.009Z,11.44
2019-04-28T09:30:35.954Z,11.54
2019-04-28T09:31:35.930Z,11.62
2019-04-28T09:32:35.855Z,11.71
2019-04-28T09:33:35.803Z,11.58
2019-04-28T09:34:35.756Z,11.54
2019-04-28T09:35:35.706Z,11.62
2019-04-28T09:36:35.678Z,11.59
2019-04-28T09:37:35.603Z,11.51
2019-04-28T09:38:35.552Z,11.37
2019-04-28T09:39:35.505Z,11.43
2019-04-28T09:40:35.446Z,11.43
2019-04-28T09:41:35.424Z,11.46
2019-04-28T09:42:35.345Z,11.51
2019-04-28T09:43:35.296Z,11.53
2019-04-28T09:44:35.239Z,11.62
2019-04-28T09:45:35.192Z,11.61
2019-04-28T09:46:35.160Z,11.74
2019-04-28T09:47:35.088Z,11.68
2019-04-28T09:48:35.037Z,11.83
2019-04-28T09:49:34.998Z,11.90
2019-04-28T09:50:34.937Z,11.99
2019-04-28T09:51:34.909Z,12.10
2019-04-28T09:52:34.841Z,12.22
2019-04-28T09:53:34.789Z,12.27
2019-04-28T09:54:34.729Z,12.32
2019-04-28T09:55:34.683Z,12.36
2019-04-28T09:56:34.654Z,12.35
2019-04-28T09:57:34.578Z,12.42
2019-04-28T09:58:34.527Z,12.57
2019-04-28T09:59:34.480Z,12.61
2019-04-28T10:00:34.475Z,12.63
2019-04-28T10:01:34.409Z,12.63
2019-04-28T10:02:34.570Z,12.79
2019-04-28T10:03:34.280Z,12.75
2019-04-28T10:04:41.295Z,12.80
2019-04-28T10:05:34.172Z,12.78
2019-04-28T10:06:34.128Z,12.75
2019-04-28T10:07:34.098Z,12.64
2019-04-28T10:08:36.401Z,12.65
2019-04-28T10:09:33.982Z,12.69
2019-04-28T10:10:33.928Z,12.65
2019-04-28T10:11:33.871Z,12.69
2019-04-28T10:12:33.851Z,12.75
2019-04-28T10:13:33.769Z,12.75
2019-04-28T10:14:33.724Z,12.71
2019-04-28T10:15:33.678Z,12.76
2019-04-28T10:16:33.628Z,12.90
2019-04-28T10:17:33.596Z,12.90
2019-04-28T10:18:33.516Z,12.97
2019-04-28T10:19:33.469Z,13.05
2019-04-28T10:20:33.420Z,12.97
2019-04-28T10:21:33.371Z,12.97
2019-04-28T10:22:33.343Z,13.00
2019-04-28T10:23:33.275Z,12.97
2019-04-28T10:24:33.220Z,12.91
2019-04-28T10:25:33.172Z,12.98
2019-04-28T10:26:33.121Z,12.93
2019-04-28T10:27:33.133Z,12.87
2019-04-28T10:28:33.020Z,12.88
2019-04-28T10:29:33.113Z,12.91
2019-04-28T10:30:32.923Z,12.88
2019-04-28T10:31:32.874Z,12.87
2019-04-28T10:32:32.845Z,12.80
2019-04-28T10:33:32.775Z,12.73
2019-04-28T10:34:32.725Z,12.64
2019-04-28T10:35:32.730Z,12.65
2019-04-28T10:36:32.621Z,12.53
2019-04-28T10:37:32.598Z,12.57
2019-04-28T10:38:32.514Z,12.53
2019-04-28T10:39:32.471Z,12.50
2019-04-28T10:40:32.422Z,12.40
2019-04-28T10:41:32.372Z,12.45
2019-04-28T10:42:32.339Z,12.42
2019-04-28T10:43:32.275Z,12.38
2019-04-28T10:44:32.217Z,12.43
2019-04-28T10:45:32.164Z,12.39
2019-04-28T10:46:32.117Z,12.36
2019-04-28T10:47:32.087Z,12.42
2019-04-28T10:48:32.019Z,12.35
2019-04-28T10:49:31.967Z,12.33
2019-04-28T10:50:31.910Z,12.24
2019-04-28T10:51:31.869Z,12.27
2019-04-28T10:52:31.851Z,12.20
2019-04-28T10:53:31.765Z,12.27
2019-04-28T10:54:31.712Z,12.24
2019-04-28T10:55:31.659Z,12.21
2019-04-28T10:56:31.613Z,12.22
2019-04-28T10:57:31.582Z,12.18
2019-04-28T10:58:31.517Z,12.27
2019-04-28T10:59:31.473Z,12.30
2019-04-28T11:00:31.411Z,12.27
2019-04-28T11:01:31.357Z,12.38
2019-04-28T11:02:31.301Z,12.35
2019-04-28T11:03:31.272Z,12.42
2019-04-28T11:04:31.204Z,12.54
2019-04-28T11:05:31.162Z,12.54
2019-04-28T11:06:31.103Z,12.63
2019-04-28T11:07:31.051Z,12.65
2019-04-28T11:08:31.030Z,12.75
2019-04-28T11:09:31.058Z,12.97
2019-04-28T11:10:30.901Z,13.06
2019-04-28T11:11:30.849Z,13.22
2019-04-28T11:12:30.803Z,13.35
2019-04-28T11:13:30.769Z,13.39
2019-04-28T11:14:30.699Z,13.56
2019-04-28T11:15:30.646Z,13.37
2019-04-28T11:16:30.596Z,13.29
2019-04-28T11:17:30.554Z,13.31
2019-04-28T11:18:30.522Z,13.15
2019-04-28T11:19:30.445Z,13.01
2019-04-28T11:20:30.398Z,13.01
2019-04-28T11:21:30.347Z,12.64
2019-04-28T11:22:30.298Z,12.60
2019-04-28T11:23:30.268Z,12.63
2019-04-28T11:24:30.198Z,12.69
2019-04-28T11:25:30.154Z,12.73
2019-04-28T11:26:30.097Z,12.80
2019-04-28T11:27:30.047Z,12.79
2019-04-28T11:28:30.023Z,12.72
2019-04-28T11:29:29.949Z,12.69
2019-04-28T11:30:29.898Z,12.61
2019-04-28T11:31:29.850Z,12.54
2019-04-28T11:32:29.803Z,12.53
2019-04-28T11:33:29.773Z,12.50
2019-04-28T11:34:29.699Z,12.38
2019-04-28T11:35:29.647Z,12.30
2019-04-28T11:36:29.596Z,12.38
2019-04-28T11:37:29.549Z,12.35
2019-04-28T11:38:29.524Z,12.39
2019-04-28T11:39:29.448Z,12.24
2019-04-28T11:40:29.407Z,12.36
2019-04-28T11:41:29.347Z,12.39
2019-04-28T11:42:29.298Z,12.28
2019-04-28T11:43:29.272Z,12.33
2019-04-28T11:44:29.225Z,12.25
2019-04-28T11:45:29.146Z,12.14
2019-04-28T11:46:29.095Z,12.07
2019-04-28T11:47:29.053Z,11.91
2019-04-28T11:48:29.015Z,11.79
2019-04-28T11:49:28.941Z,11.72
2019-04-28T11:50:28.897Z,11.72
2019-04-28T11:51:28.846Z,11.59
2019-04-28T11:52:28.792Z,11.66
2019-04-28T11:53:28.764Z,11.79
2019-04-28T11:54:28.690Z,11.76
2019-04-28T11:55:28.642Z,11.69
2019-04-28T11:56:40.436Z,11.77
2019-04-28T11:57:28.537Z,11.77
2019-04-28T11:58:28.505Z,11.77
2019-04-28T11:59:28.434Z,11.79
2019-04-28T12:00:28.390Z,11.83
2019-04-28T12:01:28.336Z,11.72
2019-04-28T12:02:28.293Z,11.81
2019-04-28T12:03:28.257Z,11.79
2019-04-28T12:04:28.182Z,11.84
2019-04-28T12:05:34.294Z,11.77
2019-04-28T12:06:28.083Z,11.79
2019-04-28T12:07:28.027Z,11.74
2019-04-28T12:08:28.000Z,11.74
2019-04-28T12:09:27.926Z,11.61
2019-04-28T12:10:27.889Z,11.48
2019-04-28T12:11:27.830Z,11.40
2019-04-28T12:12:27.770Z,11.26
2019-04-28T12:13:27.744Z,11.15
2019-04-28T12:14:27.669Z,10.97
2019-04-28T12:15:27.616Z,10.87
2019-04-28T12:16:27.571Z,10.72
2019-04-28T12:17:27.514Z,10.59
2019-04-28T12:18:27.463Z,10.49
2019-04-28T12:19:27.434Z,10.54
2019-04-28T12:20:27.364Z,10.52
2019-04-28T12:21:27.304Z,10.41
2019-04-28T12:22:27.252Z,10.37
2019-04-28T12:23:27.202Z,10.37
2019-04-28T12:24:27.175Z,10.27
2019-04-28T12:25:27.103Z,10.23
2019-04-28T12:26:27.047Z,10.13
2019-04-28T12:27:26.995Z,10.13
2019-04-28T12:28:26.946Z,10.18
2019-04-28T12:29:26.913Z,10.19
2019-04-28T12:30:26.842Z,10.19
2019-04-28T12:31:26.790Z,10.23
2019-04-28T12:32:26.732Z,10.27
2019-04-28T12:33:26.683Z,10.30
2019-04-28T12:34:26.660Z,10.34
2019-04-28T12:35:26.581Z,10.40
2019-04-28T12:36:26.529Z,10.48
2019-04-28T12:37:26.474Z,10.53
2019-04-28T12:38:26.450Z,10.57
2019-04-28T12:39:26.392Z,10.60
2019-04-28T12:40:26.320Z,10.60
2019-04-28T12:41:26.265Z,10.59
2019-04-28T12:42:26.209Z,10.59
2019-04-28T12:43:26.177Z,10.65
2019-04-28T12:44:26.129Z,10.62
2019-04-28T12:45:34.873Z,10.65
2019-04-28T12:46:26.008Z,10.70
2019-04-28T12:47:25.949Z,10.72
2019-04-28T12:48:25.901Z,10.74
2019-04-28T12:49:25.873Z,10.74
2019-04-28T12:50:25.790Z,10.68
2019-04-28T12:51:25.761Z,10.62
2019-04-28T12:52:25.692Z,10.74
2019-04-28T12:53:25.635Z,10.71
2019-04-28T12:54:25.628Z,10.60
2019-04-28T12:55:25.529Z,10.70
2019-04-28T12:56:25.481Z,10.75
2019-04-28T12:57:25.426Z,10.68
2019-04-28T12:58:25.380Z,10.77
2019-04-28T12:59:25.343Z,10.71
2019-04-28T13:00:25.277Z,10.72
2019-04-28T13:01:25.222Z,10.72
2019-04-28T13:02:25.153Z,10.75
2019-04-28T13:03:25.124Z,10.65
2019-04-28T13:04:25.091Z,10.67
2019-04-28T13:05:25.011Z,10.64